Flight Number: EUR2433 Duration: 1:15
Departure: Geneva Cointrin Airport (LSGG) at 07:30 Distance: 462 Nm
Arrival: Split (LDSP) at 08:45 Equipment: A321

Weather Information
Geneve-Cointrin, Switzerland (LSGG) 46-15N 006-08E 416M Aug 19, 2018 - 04:50 AM EDT / 2018.08.19 0850 UTC
Wind: from the NE (040 degrees) at 10 MPH (9 KT):0
Visibility: greater than 7 mile(s):0
Sky conditions: mostly clear Temperature: 75 F (24 C) Dew Point: 60 F (16 C) Relative Humidity: 60% Pressure (altimeter): 30.21 in. Hg (1023 hPa)
ob: LSGG 190850Z 04009KT 9999 FEW040 24/16 Q1023 NOSIG cycle: 9
Sunrise: 04:43 Sunset: 18:34 (UTC)

Split / Resnik, Croatia (LDSP) 43-32N 016-18E 21M Aug 19, 2018 - 05:00 AM EDT / 2018.08.19 0900 UTC
Wind: from the ESE (110 degrees) at 6 MPH (5 KT) (direction variable):0
Visibility: greater than 7 mile(s):0 Temperature: 91 F (33 C) Dew Point: 57 F (14 C) Relative Humidity: 31% Pressure (altimeter): 29.97 in. Hg (1015 hPa)
ob: LDSP 190900Z 11005KT 070V190 CAVOK 33/14 Q1015 BECMG 23010KT cycle: 9
Sunrise: 04:07 Sunset: 17:48 (UTC)

TAF:2018/08/19 06:27 TAF LDSP 190525Z 1906/2006 03006KT CAVOK TX32/1912Z TN24/2004Z BECMG 1910/1912 23008KT PROB30 TEMPO 1913/1915 VRB08KT TS FEW045CB FEW050TCU BECMG 1915/1917 07006KT

Previous Pireps for this route
Date Aircraft Flight time Fuel used Landing rate On time
2016-04-06A32101.2812708-258No
2016-08-28A32101.419894-217No
(pireps marked green are flown by you)

Route map